createdAt,value
2022-08-10T00:01:39.729Z,102293.31
2022-08-10T00:04:07.729Z,102301.03
2022-08-10T00:06:35.556Z,102297.22
2022-08-10T00:09:05.327Z,102305.16
2022-08-10T00:11:33.174Z,102296.25
2022-08-10T00:14:01.099Z,102309.50
2022-08-10T00:16:29.013Z,102301.63
2022-08-10T00:18:56.917Z,102302.56
2022-08-10T00:21:27.173Z,102312.50
2022-08-10T00:23:55.483Z,102312.38
2022-08-10T00:26:24.760Z,102312.66
2022-08-10T00:28:52.721Z,102307.28
2022-08-10T00:31:20.541Z,102310.75
2022-08-10T00:33:48.361Z,102311.78
2022-08-10T00:36:16.300Z,102297.78
2022-08-10T00:38:44.098Z,102300.22
2022-08-10T00:41:12.011Z,102305.44
2022-08-10T00:43:41.183Z,102296.47
2022-08-10T00:46:09.001Z,102293.69
2022-08-10T00:48:36.816Z,102294.53
2022-08-10T00:51:05.896Z,102287.13
2022-08-10T00:53:33.827Z,102283.59
2022-08-10T00:57:09.128Z,102281.94
2022-08-10T00:58:51.853Z,102281.97
2022-08-10T01:02:09.591Z,102280.31
2022-08-10T01:04:39.612Z,102275.19
2022-08-10T01:07:23.085Z,102279.47
2022-08-10T01:10:10.104Z,102270.78
2022-08-10T01:12:51.301Z,102273.25
2022-08-10T01:15:29.421Z,102271.13
2022-08-10T01:18:05.721Z,102270.41
2022-08-10T01:20:41.366Z,102263.19
2022-08-10T01:23:56.781Z,102273.75
2022-08-10T01:26:40.837Z,102282.72
2022-08-10T01:29:54.401Z,102279.25
2022-08-10T01:32:38.223Z,102279.41
2022-08-10T01:35:14.688Z,102283.69
2022-08-10T01:37:53.006Z,102281.16
2022-08-10T01:40:28.318Z,102273.09
2022-08-10T01:43:07.954Z,102270.75
2022-08-10T01:45:44.779Z,102278.41
2022-08-10T01:48:31.279Z,102274.09
2022-08-10T01:51:14.004Z,102268.75
2022-08-10T01:53:47.177Z,102274.13
2022-08-10T01:56:18.104Z,102270.75
2022-08-10T01:58:51.914Z,102263.66
2022-08-10T02:01:26.410Z,102274.22
2022-08-10T02:04:04.269Z,102272.53
2022-08-10T02:06:39.635Z,102272.50
2022-08-10T02:09:10.070Z,102273.56
2022-08-10T02:11:55.720Z,102276.16
2022-08-10T02:14:34.675Z,102268.34
2022-08-10T02:17:08.601Z,102280.53
2022-08-10T02:19:41.372Z,102281.38
2022-08-10T02:22:36.155Z,102279.63
2022-08-10T02:25:04.247Z,102281.38
2022-08-10T02:27:34.900Z,102281.38
2022-08-10T02:30:06.366Z,102273.44
2022-08-10T02:32:38.752Z,102282.22
2022-08-10T02:35:22.368Z,102288.34
2022-08-10T02:37:58.575Z,102289.00
2022-08-10T02:42:18.601Z,102301.28
2022-08-10T02:45:18.529Z,102288.34
2022-08-10T02:46:18.196Z,102276.97
2022-08-10T02:49:00.306Z,102282.25
2022-08-10T02:52:06.497Z,102282.25
2022-08-10T02:54:34.629Z,102286.44
2022-08-10T02:57:12.411Z,102282.22
2022-08-10T02:59:46.725Z,102277.00
2022-08-10T03:02:23.754Z,102283.97
2022-08-10T03:05:01.197Z,102289.84
2022-08-10T03:07:43.196Z,102296.00
2022-08-10T03:10:18.398Z,102290.78
2022-08-10T03:12:51.696Z,102291.69
2022-08-10T03:15:22.325Z,102290.91
2022-08-10T03:17:58.249Z,102272.66
2022-08-10T03:20:36.869Z,102272.59
2022-08-10T03:23:12.265Z,102285.72
2022-08-10T03:25:52.719Z,102285.63
2022-08-10T03:28:23.955Z,102280.41
2022-08-10T03:30:53.257Z,102279.59
2022-08-10T03:33:23.600Z,102280.44
2022-08-10T03:36:41.415Z,102281.28
2022-08-10T03:38:43.532Z,102285.72
2022-08-10T03:41:16.498Z,102282.19
2022-08-10T03:43:48.850Z,102288.16
2022-08-10T03:46:20.648Z,102292.63
2022-08-10T03:48:53.990Z,102286.53
2022-08-10T03:51:26.708Z,102281.38
2022-08-10T03:54:05.065Z,102279.59
2022-08-10T03:56:37.573Z,102277.72
2022-08-10T03:59:07.766Z,102272.47
2022-08-10T04:02:44.576Z,102288.19
2022-08-10T04:04:25.548Z,102283.03
2022-08-10T04:06:57.772Z,102280.34
2022-08-10T04:09:43.266Z,102284.66
2022-08-10T04:12:17.536Z,102281.22
2022-08-10T04:14:50.950Z,102282.06
2022-08-10T04:18:02.831Z,102287.22
2022-08-10T04:20:17.829Z,102287.41
2022-08-10T04:22:51.985Z,102293.41
2022-08-10T04:25:23.620Z,102289.84
2022-08-10T04:27:53.618Z,102294.41
2022-08-10T04:30:22.280Z,102292.72
2022-08-10T04:32:55.195Z,102295.34
2022-08-10T04:35:26.226Z,102306.56
2022-08-10T04:37:59.117Z,102296.19
2022-08-10T04:40:30.335Z,102300.53
2022-08-10T04:43:11.668Z,102305.69
2022-08-10T04:45:49.519Z,102306.56
2022-08-10T04:48:39.900Z,102303.97
2022-08-10T04:51:16.926Z,102302.31
2022-08-10T04:54:05.273Z,102308.38
2022-08-10T04:56:37.283Z,102318.78
2022-08-10T04:59:07.720Z,102321.28
2022-08-10T05:02:22.306Z,102310.06
2022-08-10T05:04:34.934Z,102310.13
2022-08-10T05:07:09.268Z,102314.47
2022-08-10T05:10:01.473Z,102317.09
2022-08-10T05:12:29.313Z,102317.09
2022-08-10T05:14:57.338Z,102326.63
2022-08-10T05:17:25.601Z,102314.47
2022-08-10T05:20:04.163Z,102319.66
2022-08-10T05:22:35.940Z,102315.22
2022-08-10T05:25:07.511Z,102322.19
2022-08-10T05:27:35.710Z,102327.50
2022-08-10T05:30:05.291Z,102324.78
2022-08-10T05:32:56.462Z,102325.66
2022-08-10T05:35:23.155Z,102331.06
2022-08-10T05:38:08.938Z,102330.16
2022-08-10T05:40:47.105Z,102333.41
2022-08-10T05:43:18.960Z,102329.75
2022-08-10T05:46:18.349Z,102329.19
2022-08-10T05:48:58.222Z,102331.78
2022-08-10T05:51:25.831Z,102333.50
2022-08-10T05:54:01.430Z,102331.72
2022-08-10T05:56:56.491Z,102339.66
2022-08-10T06:00:29.592Z,102333.53
2022-08-10T06:02:30.877Z,102335.09
2022-08-10T06:05:06.996Z,102339.59
2022-08-10T06:07:40.043Z,102337.03
2022-08-10T06:10:13.607Z,102329.53
2022-08-10T06:12:54.910Z,102335.44
2022-08-10T06:15:52.207Z,102336.28
2022-08-10T06:18:15.803Z,102341.47
2022-08-10T06:20:46.222Z,102337.47
2022-08-10T06:23:15.233Z,102339.22
2022-08-10T06:26:08.399Z,102333.59
2022-08-10T06:28:38.680Z,102342.66
2022-08-10T06:31:08.844Z,102337.31
2022-08-10T06:33:40.369Z,102339.66
2022-08-10T06:36:10.936Z,102337.91
2022-08-10T06:38:41.761Z,102339.19
2022-08-10T06:41:20.252Z,102342.84
2022-08-10T06:44:00.162Z,102340.03
2022-08-10T06:46:31.290Z,102327.03
2022-08-10T06:49:03.874Z,102327.31
2022-08-10T06:51:35.732Z,102330.75
2022-08-10T06:54:08.591Z,102330.88
2022-08-10T06:56:55.803Z,102330.03
2022-08-10T06:59:39.265Z,102320.19
2022-08-10T07:02:11.237Z,102331.28
2022-08-10T07:04:46.691Z,102321.25
2022-08-10T07:07:20.058Z,102331.06
2022-08-10T07:09:51.987Z,102323.81
2022-08-10T07:12:22.768Z,102321.88
2022-08-10T07:14:54.669Z,102321.34
2022-08-10T07:17:26.585Z,102324.31
2022-08-10T07:19:59.250Z,102316.81
2022-08-10T07:23:01.619Z,102322.53
2022-08-10T07:25:25.150Z,102319.13
2022-08-10T07:27:58.947Z,102321.19
2022-08-10T07:30:33.038Z,102326.03
2022-08-10T07:33:03.322Z,102316.69
2022-08-10T07:35:42.839Z,102320.16
2022-08-10T07:38:18.251Z,102325.44
2022-08-10T07:40:48.481Z,102310.13
2022-08-10T07:43:18.695Z,102314.03
2022-08-10T07:45:50.141Z,102322.56
2022-08-10T07:48:25.947Z,102315.81
2022-08-10T07:51:00.181Z,102320.63
2022-08-10T07:53:34.453Z,102321.00
2022-08-10T07:56:16.960Z,102322.84
2022-08-10T07:59:00.799Z,102320.38
2022-08-10T08:01:34.335Z,102322.84
2022-08-10T08:04:05.436Z,102329.94
2022-08-10T08:06:41.229Z,102316.66
2022-08-10T08:09:10.888Z,102312.28
2022-08-10T08:11:41.991Z,102320.84
2022-08-10T08:14:12.113Z,102315.63
2022-08-10T08:16:45.305Z,102320.75
2022-08-10T08:19:35.542Z,102319.06
2022-08-10T08:24:06.550Z,102322.38
2022-08-10T08:24:55.830Z,102306.03
2022-08-10T08:27:25.989Z,102306.53
2022-08-10T08:29:55.224Z,102305.78
2022-08-10T08:32:26.981Z,102307.41
2022-08-10T08:35:00.393Z,102297.97
2022-08-10T08:38:30.417Z,102294.75
2022-08-10T08:40:27.321Z,102301.03
2022-08-10T08:43:31.612Z,102301.06
2022-08-10T08:46:38.441Z,102298.22
2022-08-10T08:50:07.723Z,102298.03
2022-08-10T08:52:36.060Z,102283.03
2022-08-10T08:56:05.028Z,102285.22
2022-08-10T08:58:35.914Z,102272.38
2022-08-10T09:01:24.286Z,102285.38
2022-08-10T09:04:29.847Z,102280.91
2022-08-10T09:08:00.730Z,102283.47
2022-08-10T09:10:35.428Z,102282.06
2022-08-10T09:13:15.169Z,102283.66
2022-08-10T09:16:00.422Z,102272.63
2022-08-10T09:18:41.078Z,102272.63
2022-08-10T09:21:24.570Z,102278.38
2022-08-10T09:24:05.854Z,102271.88
2022-08-10T09:26:47.942Z,102276.78
2022-08-10T09:29:26.750Z,102278.91
2022-08-10T09:36:15.894Z,102273.41
2022-08-10T09:36:27.607Z,102280.44
2022-08-10T09:38:23.411Z,102273.38
2022-08-10T09:41:05.349Z,102268.44
2022-08-10T09:43:57.769Z,102260.81
2022-08-10T09:46:48.348Z,102261.91
2022-08-10T09:49:52.981Z,102250.38
2022-08-10T09:52:25.751Z,102254.06
2022-08-10T09:55:14.208Z,102261.06
2022-08-10T09:57:59.820Z,102255.22
2022-08-10T10:00:38.663Z,102256.63
2022-08-10T10:03:20.536Z,102252.47
2022-08-10T10:06:04.537Z,102245.78
2022-08-10T10:08:43.831Z,102244.59
2022-08-10T10:11:30.158Z,102243.22
2022-08-10T10:14:13.823Z,102247.00
2022-08-10T10:17:01.000Z,102232.72
2022-08-10T10:19:54.282Z,102228.56
2022-08-10T10:22:55.522Z,102229.38
2022-08-10T10:25:49.740Z,102229.53
2022-08-10T10:29:11.777Z,102223.25
2022-08-10T10:31:32.840Z,102214.97
2022-08-10T10:34:14.917Z,102222.31
2022-08-10T10:36:45.788Z,102214.78
2022-08-10T10:39:23.475Z,102209.81
2022-08-10T10:42:05.754Z,102208.28
2022-08-10T10:44:48.044Z,102198.50
2022-08-10T10:47:46.304Z,102208.69
2022-08-10T10:50:20.688Z,102205.69
2022-08-10T10:53:04.062Z,102201.00
2022-08-10T10:56:13.477Z,102207.31
2022-08-10T10:58:37.810Z,102197.91
2022-08-10T11:01:21.644Z,102193.94
2022-08-10T11:04:14.034Z,102201.78
2022-08-10T11:07:02.955Z,102202.53
2022-08-10T11:10:04.992Z,102189.25
2022-08-10T11:12:46.930Z,102188.78
2022-08-10T11:15:29.937Z,102186.09
2022-08-10T11:18:09.193Z,102168.28
2022-08-10T11:20:52.861Z,102170.50
2022-08-10T11:23:32.340Z,102171.59
2022-08-10T11:26:08.964Z,102159.94
2022-08-10T11:28:45.888Z,102163.84
2022-08-10T11:31:27.846Z,102160.28
2022-08-10T11:34:48.562Z,102164.78
2022-08-10T11:37:03.891Z,102173.78
2022-08-10T11:39:49.293Z,102163.44
2022-08-10T11:42:35.871Z,102158.63
2022-08-10T11:45:11.119Z,102160.88
2022-08-10T11:47:48.126Z,102155.91
2022-08-10T11:50:26.139Z,102144.22
2022-08-10T11:53:11.001Z,102141.34
2022-08-10T11:55:38.970Z,102151.09
2022-08-10T11:58:27.302Z,102150.22
2022-08-10T12:01:02.117Z,102143.81
2022-08-10T12:03:35.226Z,102146.22
2022-08-10T12:06:08.497Z,102138.19
2022-08-10T12:10:07.219Z,102134.78
2022-08-10T12:11:30.261Z,102133.28
2022-08-10T12:14:21.430Z,102133.31
2022-08-10T12:17:02.991Z,102144.53
2022-08-10T12:19:59.779Z,102139.63
2022-08-10T12:22:37.205Z,102130.00
2022-08-10T12:25:49.656Z,102136.75
2022-08-10T12:28:11.891Z,102136.13
2022-08-10T12:30:50.195Z,102139.63
2022-08-10T12:33:26.256Z,102138.94
2022-08-10T12:36:18.350Z,102137.28
2022-08-10T12:39:02.666Z,102120.63
2022-08-10T12:41:44.491Z,102128.16
2022-08-10T12:44:19.118Z,102117.28
2022-08-10T12:46:58.312Z,102113.16
2022-08-10T12:49:35.110Z,102107.00
2022-08-10T12:52:15.630Z,102099.69
2022-08-10T12:54:47.727Z,102104.94
2022-08-10T12:57:20.041Z,102103.94
2022-08-10T12:59:53.290Z,102097.16
2022-08-10T13:02:27.492Z,102092.31
2022-08-10T13:04:59.902Z,102090.22
2022-08-10T13:08:25.687Z,102085.38
2022-08-10T13:10:25.058Z,102083.53
2022-08-10T13:12:59.241Z,102088.63
2022-08-10T13:15:48.510Z,102075.75
2022-08-10T13:18:27.048Z,102074.66
2022-08-10T13:21:03.773Z,102074.41
2022-08-10T13:24:04.158Z,102067.28
2022-08-10T13:27:24.651Z,102055.03
2022-08-10T13:29:36.467Z,102057.88
2022-08-10T13:32:09.741Z,102062.94
2022-08-10T13:34:46.233Z,102055.97
2022-08-10T13:37:20.049Z,102048.91
2022-08-10T13:39:58.471Z,102045.81
2022-08-10T13:42:36.874Z,102035.19
2022-08-10T13:45:13.691Z,102036.06
2022-08-10T13:47:48.000Z,102034.03
2022-08-10T13:50:35.660Z,102032.59
2022-08-10T13:53:14.972Z,102037.38
2022-08-10T13:55:54.035Z,102023.72
2022-08-10T13:58:29.040Z,102024.50
2022-08-10T14:01:00.918Z,102025.84
2022-08-10T14:03:37.577Z,102021.84
2022-08-10T14:06:11.355Z,102017.22
2022-08-10T14:08:42.156Z,102009.69
2022-08-10T14:11:17.207Z,102016.94
2022-08-10T14:13:59.182Z,102012.19
2022-08-10T14:16:27.960Z,102015.88
2022-08-10T14:19:12.370Z,102009.78
2022-08-10T14:21:41.770Z,102014.50
2022-08-10T14:24:22.939Z,102008.47
2022-08-10T14:26:58.055Z,101999.84
2022-08-10T14:29:29.810Z,101998.78
2022-08-10T14:32:02.278Z,101996.75
2022-08-10T14:34:59.280Z,101995.31
2022-08-10T14:37:33.091Z,101999.53
2022-08-10T14:40:12.361Z,101998.66
2022-08-10T14:42:50.435Z,101993.78
2022-08-10T14:45:27.415Z,101996.56
2022-08-10T14:48:08.224Z,101993.97
2022-08-10T14:50:55.443Z,101997.63
2022-08-10T14:53:27.939Z,101991.81
2022-08-10T14:56:01.154Z,101987.16
2022-08-10T14:58:38.479Z,101985.84
2022-08-10T15:01:11.288Z,101983.56
2022-08-10T15:04:02.611Z,101987.31
2022-08-10T15:06:38.094Z,101980.91
2022-08-10T15:09:19.191Z,101979.66
2022-08-10T15:12:12.975Z,101970.47
2022-08-10T15:14:43.071Z,101974.91
2022-08-10T15:17:22.906Z,101971.72
2022-08-10T15:20:04.269Z,101978.94
2022-08-10T15:22:46.383Z,101966.00
2022-08-10T15:25:19.105Z,101965.91
2022-08-10T15:28:02.157Z,101961.28
2022-08-10T15:30:44.178Z,101955.47
2022-08-10T15:34:02.283Z,101964.56
2022-08-10T15:36:44.740Z,101957.06
2022-08-10T15:40:20.935Z,101954.94
2022-08-10T15:42:21.560Z,101954.94
2022-08-10T15:44:53.493Z,101951.03
2022-08-10T15:47:26.588Z,101946.47
2022-08-10T15:50:06.105Z,101949.53
2022-08-10T15:53:01.991Z,101946.53
2022-08-10T15:55:43.487Z,101947.41
2022-08-10T15:58:30.200Z,101950.44
2022-08-10T16:02:03.897Z,101946.28
2022-08-10T16:04:08.591Z,101943.97
2022-08-10T16:06:44.523Z,101950.28
2022-08-10T16:10:24.330Z,101954.09
2022-08-10T16:12:16.241Z,101949.78
2022-08-10T16:14:50.609Z,101948.81
2022-08-10T16:17:22.493Z,101946.22
2022-08-10T16:19:54.073Z,101941.69
2022-08-10T16:22:35.537Z,101939.53
2022-08-10T16:25:16.722Z,101935.69
2022-08-10T16:27:46.186Z,101935.69
2022-08-10T16:30:15.350Z,101935.63
2022-08-10T16:32:47.406Z,101940.31
2022-08-10T16:35:20.894Z,101931.47
2022-08-10T16:37:58.328Z,101934.25
2022-08-10T16:40:29.909Z,101931.38
2022-08-10T16:43:00.674Z,101924.47
2022-08-10T16:45:35.485Z,101925.94
2022-08-10T16:48:06.624Z,101921.97
2022-08-10T16:50:41.437Z,101924.38
2022-08-10T16:53:15.403Z,101923.94
2022-08-10T16:55:50.992Z,101917.44
2022-08-10T16:58:27.251Z,101921.44
2022-08-10T17:01:03.202Z,101917.47
2022-08-10T17:04:08.456Z,101914.03
2022-08-10T17:06:31.990Z,101919.59
2022-08-10T17:09:05.612Z,101915.94
2022-08-10T17:11:37.826Z,101916.63
2022-08-10T17:14:10.441Z,101915.22
2022-08-10T17:16:42.637Z,101906.53
2022-08-10T17:19:16.531Z,101914.88
2022-08-10T17:21:52.655Z,101905.56
2022-08-10T17:24:29.349Z,101912.03
2022-08-10T17:27:02.144Z,101909.41
2022-08-10T17:30:03.733Z,101912.94
2022-08-10T17:32:44.352Z,101911.38
2022-08-10T17:35:23.427Z,101912.44
2022-08-10T17:37:58.958Z,101910.91
2022-08-10T17:40:31.250Z,101911.72
2022-08-10T17:43:02.486Z,101913.97
2022-08-10T17:45:46.799Z,101914.19
2022-08-10T17:48:21.897Z,101917.16
2022-08-10T17:50:53.019Z,101911.22
2022-08-10T17:53:28.548Z,101920.03
2022-08-10T17:56:01.485Z,101912.44
2022-08-10T17:58:31.740Z,101917.03
2022-08-10T18:01:38.576Z,101909.78
2022-08-10T18:03:56.502Z,101913.75
2022-08-10T18:06:25.767Z,101909.91
2022-08-10T18:08:58.850Z,101908.09
2022-08-10T18:11:34.194Z,101913.59
2022-08-10T18:14:06.950Z,101912.41
2022-08-10T18:16:35.989Z,101912.31
2022-08-10T18:19:13.657Z,101912.88
2022-08-10T18:21:44.544Z,101912.56
2022-08-10T18:24:19.406Z,101919.72
2022-08-10T18:26:52.000Z,101924.44
2022-08-10T18:29:27.156Z,101918.78
2022-08-10T18:31:59.674Z,101926.66
2022-08-10T18:34:30.692Z,101928.38
2022-08-10T18:36:58.881Z,101927.44
2022-08-10T18:39:33.955Z,101926.34
2022-08-10T18:42:12.719Z,101925.44
2022-08-10T18:44:45.881Z,101922.66
2022-08-10T18:47:19.132Z,101930.56
2022-08-10T18:50:02.626Z,101935.34
2022-08-10T18:52:34.670Z,101936.97
2022-08-10T18:55:23.051Z,101944.69
2022-08-10T18:58:17.660Z,101943.13
2022-08-10T19:01:17.183Z,101943.47
2022-08-10T19:04:07.225Z,101945.75
2022-08-10T19:07:13.683Z,101946.69
2022-08-10T19:09:55.273Z,101955.00
2022-08-10T19:12:43.643Z,101949.22
2022-08-10T19:15:30.812Z,101948.19
2022-08-10T19:18:14.697Z,101946.53
2022-08-10T19:20:51.515Z,101950.25
2022-08-10T19:23:37.684Z,101957.28
2022-08-10T19:26:41.861Z,101956.59
2022-08-10T19:30:10.035Z,101954.44
2022-08-10T19:32:30.192Z,101947.09
2022-08-10T19:35:08.591Z,101946.72
2022-08-10T19:38:00.788Z,101945.47
2022-08-10T19:40:44.232Z,101949.25
2022-08-10T19:43:20.852Z,101954.91
2022-08-10T19:46:18.658Z,101955.66
2022-08-10T19:48:58.719Z,101957.63
2022-08-10T19:51:34.535Z,101964.41
2022-08-10T19:54:15.062Z,101971.72
2022-08-10T19:57:06.428Z,101977.09
2022-08-10T20:00:16.275Z,101991.47
2022-08-10T20:02:38.079Z,101985.06
2022-08-10T20:05:16.728Z,101985.97
2022-08-10T20:07:56.061Z,101987.91
2022-08-10T20:10:33.435Z,101989.44
2022-08-10T20:13:22.706Z,101999.41
2022-08-10T20:16:01.659Z,101988.13
2022-08-10T20:18:37.118Z,101985.47
2022-08-10T20:21:13.445Z,101982.69
2022-08-10T20:23:55.523Z,101996.50
2022-08-10T20:26:29.521Z,101996.03
2022-08-10T20:29:09.851Z,101999.25
2022-08-10T20:31:54.790Z,101996.75
2022-08-10T20:34:26.505Z,101996.94
2022-08-10T20:37:03.705Z,101995.66
2022-08-10T20:39:51.588Z,102000.28
2022-08-10T20:42:28.283Z,102002.88
2022-08-10T20:45:06.984Z,102002.03
2022-08-10T20:47:54.069Z,102009.00
2022-08-10T20:50:34.977Z,102011.44
2022-08-10T20:53:10.671Z,102014.88
2022-08-10T20:56:09.117Z,102018.59
2022-08-10T20:59:09.243Z,102015.94
2022-08-10T21:02:06.512Z,102018.22
2022-08-10T21:04:52.811Z,102011.69
2022-08-10T21:08:02.644Z,102009.34
2022-08-10T21:10:53.569Z,102010.03
2022-08-10T21:13:54.297Z,102011.63
2022-08-10T21:16:50.408Z,102009.72
2022-08-10T21:19:53.933Z,102007.69
2022-08-10T21:22:31.511Z,102010.50
2022-08-10T21:25:07.658Z,102012.38
2022-08-10T21:28:10.667Z,102011.59
2022-08-10T21:31:05.284Z,102006.22
2022-08-10T21:33:42.635Z,102007.38
2022-08-10T21:36:22.653Z,102006.31
2022-08-10T21:39:06.259Z,102003.03
2022-08-10T21:42:04.673Z,102006.63
2022-08-10T21:45:16.752Z,102002.16
2022-08-10T21:48:30.380Z,102012.84
2022-08-10T21:52:00.636Z,102012.31
2022-08-10T21:54:40.732Z,102014.84
2022-08-10T21:57:43.556Z,102016.91
2022-08-10T22:00:34.152Z,102014.59
2022-08-10T22:03:23.503Z,102009.59
2022-08-10T22:06:13.113Z,102014.94
2022-08-10T22:09:05.200Z,102012.03
2022-08-10T22:11:58.602Z,102006.38
2022-08-10T22:14:52.175Z,102005.78
2022-08-10T22:18:03.491Z,102005.72
2022-08-10T22:20:53.853Z,102007.50
2022-08-10T22:24:16.609Z,102005.50
2022-08-10T22:27:46.964Z,102002.91
2022-08-10T22:30:36.034Z,102005.72
2022-08-10T22:33:44.326Z,102004.81
2022-08-10T22:37:09.016Z,101996.41
2022-08-10T22:40:14.379Z,101992.59
2022-08-10T22:43:10.630Z,101994.91
2022-08-10T22:46:06.344Z,101996.31
2022-08-10T22:49:01.609Z,101995.91
2022-08-10T22:51:39.278Z,101993.28
2022-08-10T22:54:34.458Z,101995.41
2022-08-10T22:57:21.591Z,101994.00
2022-08-10T22:59:51.317Z,101994.16
2022-08-10T23:02:31.847Z,102004.03
2022-08-10T23:05:09.130Z,101993.59
2022-08-10T23:07:47.559Z,101990.66
2022-08-10T23:10:19.973Z,101997.16
2022-08-10T23:12:56.558Z,101980.09
2022-08-10T23:15:51.516Z,101982.75
2022-08-10T23:18:49.884Z,101982.59
2022-08-10T23:21:22.580Z,101983.53
2022-08-10T23:23:56.588Z,101997.47
2022-08-10T23:26:28.242Z,101996.69
2022-08-10T23:29:11.980Z,101996.38
2022-08-10T23:31:59.222Z,101985.34
2022-08-10T23:34:37.678Z,101987.03
2022-08-10T23:37:10.239Z,101983.06
2022-08-10T23:39:42.881Z,101985.34
2022-08-10T23:42:17.211Z,101986.16
2022-08-10T23:44:50.238Z,101981.56
2022-08-10T23:47:22.534Z,101976.84
2022-08-10T23:49:54.908Z,101980.34
2022-08-10T23:52:27.480Z,101975.25
2022-08-10T23:55:01.927Z,101978.19
2022-08-10T23:57:34.153Z,101982.44
